Details for Ryanair at EIDW




Go Back


Latest METAR
Local Time

EIDW 241330Z 15010KT 9999 FEW017 BKN024 03/M03 Q1021 NOSIG

24/02/2018, 13:42:04

Description
Results
Ryanair Logo
Number of Pilots based at EIDW
0 Pilots Based here
Number of Ryanair Flights Departed from EIDW
23 Flights Departed
Number of Ryanair Flights Arrived at EIDW
25 Flights Arrived
Number of Ryanair Schedules Departing from EIDW
269 Schedules
Number of Ryanair Schedules Arriving at EIDW
273 Schedules
Number of Ryanair Schedules Departing from EIDW availible today
98 Schedules Today
Number of Ryanair Schedules Arriving at EIDW availible today
105 Schedules Today
Average Landing Rate at EIDW
-224 fpm
Ryanair Average Landing Rate at EIDW
-227 fpm
Total Fuel Purchased at EIDW by Ryanair
108,825.02 kgs / 239,915.64 lbs

Pilots Based at EIDW


Pilot ID
Pilot Name
Pilot Rank
No. of Flights
No. of Flying Hours
There are no pilots assigned to this hub!   Will you be the first?
Content